Time;durP1;ratioP1;P1;durP2;ratioP2;P2;SDS_P1;SDS_P2;PMS_P1;PMS_P2;Temp;Humidity;BMP_temperature;BMP_pressure;BME280_temperature;BME280_humidity;BME280_pressure;Samples;Min_cycle;Max_cycle;Signal;HPM_P1;HPM_P2
2022/10/30 00:00:11;;;;;;;711.50;148.05;;;10.80;99.90;;;;;;6337939;22;19995;-83
2022/10/30 00:02:36;;;;;;;544.55;123.63;;;10.80;99.90;;;;;;6339141;22;20089;-84
2022/10/30 00:05:02;;;;;;;695.40;135.13;;;10.80;99.90;;;;;;6339344;22;20419;-87
2022/10/30 00:07:28;;;;;;;491.63;127.22;;;10.70;99.90;;;;;;6339135;22;19995;-88
2022/10/30 00:09:54;;;;;;;590.25;143.30;;;10.80;99.90;;;;;;6339407;22;20281;-87
2022/10/30 00:12:20;;;;;;;347.95;116.68;;;10.70;99.90;;;;;;6337663;22;20056;-86
2022/10/30 00:14:45;;;;;;;443.50;136.07;;;10.70;99.90;;;;;;6337357;22;20011;-85
2022/10/30 00:17:11;;;;;;;632.65;158.57;;;10.70;99.90;;;;;;6337931;22;19999;-84
2022/10/30 00:19:37;;;;;;;548.35;148.55;;;10.70;99.90;;;;;;6337283;22;20048;-84
2022/10/30 00:22:03;;;;;;;447.27;141.25;;;10.60;99.90;;;;;;6337395;22;20001;-87
2022/10/30 00:24:28;;;;;;;476.50;143.85;;;10.60;99.90;;;;;;6312017;22;20308;-86
2022/10/30 00:26:54;;;;;;;369.50;126.95;;;10.50;99.90;;;;;;6337843;22;20132;-84
2022/10/30 00:29:25;;;;;;;346.15;133.15;;;10.40;99.90;;;;;;6337874;22;20081;-84
2022/10/30 00:31:51;;;;;;;483.52;136.68;;;10.40;99.90;;;;;;6338080;22;20001;-87
2022/10/30 00:34:17;;;;;;;568.92;144.40;;;10.40;99.90;;;;;;6339234;22;20338;-87
2022/10/30 00:36:42;;;;;;;267.58;112.25;;;10.30;99.90;;;;;;6338097;22;20052;-85
2022/10/30 00:39:08;;;;;;;469.45;139.57;;;10.30;99.90;;;;;;6337683;22;20021;-85
2022/10/30 00:41:35;;;;;;;369.92;125.93;;;10.20;99.90;;;;;;6337447;22;19999;-89
2022/10/30 00:44:01;;;;;;;392.98;131.52;;;10.20;99.90;;;;;;6311321;22;20002;-86
2022/10/30 00:46:32;;;;;;;312.73;116.88;;;10.20;99.90;;;;;;6337525;22;20033;-86
2022/10/30 00:49:24;;;;;;;443.33;129.10;;;10.30;99.90;;;;;;6310990;22;20070;-86
2022/10/30 00:51:53;;;;;;;670.95;146.18;;;10.30;99.90;;;;;;6331749;22;20002;-87
2022/10/30 00:54:20;;;;;;;452.33;131.68;;;10.20;99.90;;;;;;6311602;22;19990;-86
2022/10/30 00:56:49;;;;;;;751.60;158.70;;;10.20;99.90;;;;;;6311407;22;19995;-88
2022/10/30 00:59:19;;;;;;;558.88;144.85;;;10.20;99.90;;;;;;6311747;22;19994;-86
2022/10/30 01:01:46;;;;;;;516.05;128.27;;;10.20;99.90;;;;;;6311619;22;20041;-86
2022/10/30 01:04:14;;;;;;;523.20;134.27;;;10.20;99.90;;;;;;6310960;22;20002;-87
2022/10/30 01:06:46;;;;;;;715.03;150.73;;;10.20;99.90;;;;;;6311423;22;20420;-86
2022/10/30 01:09:13;;;;;;;550.55;136.85;;;10.20;99.90;;;;;;6310992;22;19995;-85
2022/10/30 01:11:39;;;;;;;657.28;156.38;;;10.10;99.90;;;;;;6311492;22;20357;-87
2022/10/30 01:14:08;;;;;;;559.92;150.30;;;10.00;99.90;;;;;;6339136;22;20420;-87
2022/10/30 01:16:44;;;;;;;660.00;152.57;;;10.00;99.90;;;;;;6339186;22;20037;-87
2022/10/30 01:19:31;;;;;;;758.65;162.38;;;9.90;99.90;;;;;;6311378;22;20029;-87
2022/10/30 01:22:00;;;;;;;477.95;139.13;;;9.80;99.90;;;;;;6338700;22;19995;-87
2022/10/30 01:24:35;;;;;;;474.95;137.10;;;9.70;99.90;;;;;;6311232;22;19995;-87
2022/10/30 01:27:28;;;;;;;504.52;137.60;;;9.70;99.90;;;;;;6311510;22;20063;-86
2022/10/30 01:30:03;;;;;;;422.90;135.55;;;9.60;99.90;;;;;;6339231;22;19987;-83
2022/10/30 01:32:35;;;;;;;409.60;131.27;;;9.60;99.90;;;;;;6312933;22;19998;-86
2022/10/30 01:35:13;;;;;;;434.02;136.45;;;9.50;99.90;;;;;;6313483;22;19998;-87
2022/10/30 01:38:04;;;;;;;607.55;143.63;;;9.60;99.90;;;;;;6313077;22;19998;-88
2022/10/30 01:40:32;;;;;;;566.50;151.98;;;9.50;99.90;;;;;;6291017;22;20002;-88
2022/10/30 01:42:58;;;;;;;598.30;151.75;;;9.40;99.90;;;;;;6339075;22;20048;-86
2022/10/30 01:45:43;;;;;;;693.05;157.63;;;9.50;99.90;;;;;;6312622;22;20011;-85
2022/10/30 01:48:43;;;;;;;525.15;144.70;;;9.50;99.90;;;;;;6312995;22;20036;-86
2022/10/30 01:51:27;;;;;;;652.88;146.15;;;9.50;99.90;;;;;;6340760;22;19995;-87
2022/10/30 01:54:22;;;;;;;602.13;153.93;;;9.50;99.90;;;;;;6313085;22;20281;-86
2022/10/30 01:57:11;;;;;;;348.95;132.57;;;9.40;99.90;;;;;;6214111;23;20004;-87
2022/10/30 01:59:49;;;;;;;407.45;133.90;;;9.50;99.90;;;;;;6214455;23;20004;-85
2022/10/30 02:02:15;;;;;;;583.47;152.73;;;9.60;99.90;;;;;;6214659;23;20000;-86
2022/10/30 02:04:41;;;;;;;552.53;148.50;;;9.50;99.90;;;;;;6214308;23;20005;-85
2022/10/30 02:07:08;;;;;;;557.78;144.07;;;9.60;99.90;;;;;;6214227;23;20120;-84
2022/10/30 02:09:34;;;;;;;426.65;136.77;;;9.60;99.90;;;;;;6214238;23;19997;-87
2022/10/30 02:12:01;;;;;;;741.47;160.85;;;9.60;99.90;;;;;;6214438;23;19997;-86
2022/10/30 02:14:31;;;;;;;552.78;153.63;;;9.70;99.90;;;;;;6214080;23;20000;-85
2022/10/30 02:17:01;;;;;;;456.25;147.40;;;9.70;99.90;;;;;;6214093;23;20076;-86
2022/10/30 02:19:28;;;;;;;481.23;151.73;;;9.80;99.90;;;;;;6214052;23;19996;-88
2022/10/30 02:21:53;;;;;;;729.70;175.93;;;9.80;99.90;;;;;;6214270;23;20016;-88
2022/10/30 02:24:19;;;;;;;446.63;148.77;;;9.80;99.90;;;;;;6214216;23;20449;-85
2022/10/30 02:26:45;;;;;;;788.55;178.20;;;9.90;99.90;;;;;;6213989;23;20429;-87
2022/10/30 02:29:12;;;;;;;731.90;177.93;;;9.80;99.90;;;;;;6214402;23;20001;-86
2022/10/30 02:31:38;;;;;;;447.95;151.63;;;9.80;99.90;;;;;;6214317;23;20302;-87
2022/10/30 02:34:03;;;;;;;438.92;145.75;;;9.90;99.90;;;;;;6321611;22;20074;-87
2022/10/30 02:36:29;;;;;;;563.70;163.88;;;9.80;99.90;;;;;;6338786;22;20538;-85
2022/10/30 02:38:55;;;;;;;600.58;163.60;;;9.90;99.90;;;;;;6312601;22;20485;-87
2022/10/30 02:41:22;;;;;;;541.13;158.80;;;9.90;99.90;;;;;;6338419;22;19999;-85
2022/10/30 02:43:50;;;;;;;562.45;163.65;;;9.80;99.90;;;;;;6312145;22;20308;-84
2022/10/30 02:46:16;;;;;;;942.25;186.90;;;9.90;99.90;;;;;;6312426;22;20006;-86
2022/10/30 02:48:42;;;;;;;803.50;176.82;;;9.90;99.90;;;;;;6338484;22;19995;-84
2022/10/30 02:51:08;;;;;;;550.67;161.05;;;9.80;99.90;;;;;;6339875;22;20047;-89
2022/10/30 02:53:34;;;;;;;708.67;183.90;;;9.90;99.90;;;;;;6339699;22;20040;-84
2022/10/30 02:56:18;;;;;;;555.00;166.38;;;9.90;99.90;;;;;;6338313;22;20003;-87
2022/10/30 02:58:43;;;;;;;1056.68;206.00;;;10.00;99.90;;;;;;6338607;22;19998;-88
2022/10/30 03:01:17;;;;;;;838.05;193.45;;;10.00;99.90;;;;;;6338495;22;19998;-87
2022/10/30 03:03:44;;;;;;;762.42;197.93;;;10.00;99.90;;;;;;6339688;22;19998;-84
2022/10/30 03:06:14;;;;;;;915.10;215.70;;;10.00;99.90;;;;;;6312240;22;20006;-85
2022/10/30 03:08:40;;;;;;;1080.22;220.73;;;10.00;99.90;;;;;;6311946;22;20014;-87
2022/10/30 03:11:14;;;;;;;756.35;202.02;;;10.00;99.90;;;;;;6340408;22;20035;-87
2022/10/30 03:13:42;;;;;;;916.20;202.30;;;10.00;99.90;;;;;;6312628;22;19995;-85
2022/10/30 03:16:20;;;;;;;686.33;173.80;;;9.90;99.90;;;;;;6312229;22;20011;-86
2022/10/30 03:18:47;;;;;;;537.30;149.55;;;10.00;99.90;;;;;;6340388;22;20330;-86
2022/10/30 03:21:16;;;;;;;500.33;147.55;;;9.80;99.90;;;;;;6339986;22;19995;-87
2022/10/30 03:23:42;;;;;;;409.45;139.40;;;9.80;99.90;;;;;;6312578;22;19999;-89
2022/10/30 03:26:08;;;;;;;406.08;136.75;;;9.80;99.90;;;;;;6340111;22;20056;-88
2022/10/30 03:28:34;;;;;;;423.52;138.55;;;9.90;99.90;;;;;;6312298;22;20062;-85
2022/10/30 03:31:00;;;;;;;548.00;146.48;;;9.80;99.90;;;;;;6338005;22;20421;-86
2022/10/30 03:33:27;;;;;;;340.83;130.95;;;9.70;99.90;;;;;;6312219;22;19999;-85
2022/10/30 03:35:52;;;;;;;304.33;119.32;;;9.70;99.90;;;;;;6312167;22;20006;-84
2022/10/30 03:38:18;;;;;;;474.00;132.23;;;9.80;99.90;;;;;;6338079;22;20003;-85
2022/10/30 03:40:44;;;;;;;520.50;140.43;;;9.70;99.90;;;;;;6339249;22;19991;-84
2022/10/30 03:43:10;;;;;;;508.45;136.60;;;9.70;99.90;;;;;;6338059;22;20085;-83
2022/10/30 03:45:35;;;;;;;362.50;120.70;;;9.70;99.90;;;;;;6339669;22;20007;-85
2022/10/30 03:48:02;;;;;;;308.83;118.60;;;9.70;99.90;;;;;;6337982;22;19994;-85
2022/10/30 03:50:28;;;;;;;510.70;140.30;;;9.70;99.90;;;;;;6311829;22;20084;-91
2022/10/30 03:52:54;;;;;;;364.52;133.77;;;9.70;99.90;;;;;;6339670;22;20418;-87
2022/10/30 03:55:21;;;;;;;637.85;146.93;;;9.80;99.90;;;;;;6311785;22;20007;-89
2022/10/30 03:57:46;;;;;;;567.75;140.07;;;9.70;99.90;;;;;;6311508;22;20017;-85
2022/10/30 04:00:13;;;;;;;376.38;129.60;;;9.70;99.90;;;;;;6338389;22;19995;-86
2022/10/30 04:02:43;;;;;;;436.67;136.32;;;9.60;99.90;;;;;;6339582;22;20017;-86
2022/10/30 04:05:09;;;;;;;512.13;145.50;;;9.60;99.90;;;;;;6311457;22;20411;-87
2022/10/30 04:07:34;;;;;;;530.47;145.38;;;9.70;99.90;;;;;;6338225;22;19994;-86
2022/10/30 04:10:00;;;;;;;455.02;133.48;;;9.60;99.90;;;;;;6339209;22;20359;-84
2022/10/30 04:12:26;;;;;;;472.75;136.90;;;9.50;99.90;;;;;;6337584;22;20420;-85
2022/10/30 04:14:52;;;;;;;502.08;138.60;;;9.60;99.90;;;;;;6337504;22;20036;-86
2022/10/30 04:17:18;;;;;;;403.67;124.90;;;9.60;99.90;;;;;;6337694;22;20006;-87
2022/10/30 04:19:44;;;;;;;574.28;139.93;;;9.60;99.90;;;;;;6339157;22;19990;-85
2022/10/30 04:22:09;;;;;;;776.20;154.05;;;9.50;99.90;;;;;;6337945;22;20002;-86
2022/10/30 04:24:38;;;;;;;571.15;136.88;;;9.50;99.90;;;;;;6337272;22;20079;-86
2022/10/30 04:27:04;;;;;;;575.60;143.60;;;9.50;99.90;;;;;;6339008;22;19995;-85
2022/10/30 04:29:30;;;;;;;679.90;145.57;;;9.60;99.90;;;;;;6311987;22;20002;-86
2022/10/30 04:31:56;;;;;;;437.10;131.82;;;9.50;99.90;;;;;;6337778;22;20438;-89
2022/10/30 04:34:22;;;;;;;598.80;142.07;;;9.60;99.90;;;;;;6337527;22;19995;-85
2022/10/30 04:36:48;;;;;;;528.42;127.85;;;9.40;99.90;;;;;;6338941;22;19995;-88
2022/10/30 04:39:14;;;;;;;510.42;128.32;;;9.50;99.90;;;;;;6337453;22;20078;-86
2022/10/30 04:41:39;;;;;;;513.45;134.13;;;9.40;99.90;;;;;;6337620;22;19991;-84
2022/10/30 04:44:05;;;;;;;511.38;128.25;;;9.40;99.90;;;;;;6337421;22;20052;-86
2022/10/30 04:46:32;;;;;;;354.33;115.05;;;9.40;99.90;;;;;;6337465;22;20060;-87
2022/10/30 04:48:57;;;;;;;320.25;117.90;;;9.40;99.90;;;;;;6339254;22;19991;-87
2022/10/30 04:51:23;;;;;;;453.40;127.10;;;9.50;99.90;;;;;;6338693;22;19998;-84
2022/10/30 04:53:49;;;;;;;346.88;117.20;;;9.50;99.90;;;;;;6337517;22;20085;-86
2022/10/30 04:56:15;;;;;;;581.33;136.32;;;9.50;99.90;;;;;;6337680;22;20003;-86
2022/10/30 04:58:41;;;;;;;541.50;128.57;;;9.40;99.90;;;;;;6337662;22;20074;-85
2022/10/30 05:01:07;;;;;;;474.35;125.18;;;9.40;99.90;;;;;;6337217;22;20079;-86
2022/10/30 05:03:33;;;;;;;445.55;124.07;;;9.30;99.90;;;;;;6337766;22;19999;-86
2022/10/30 05:06:04;;;;;;;446.30;120.80;;;9.30;99.90;;;;;;6337849;22;20476;-87
2022/10/30 05:08:30;;;;;;;408.30;122.88;;;9.40;99.90;;;;;;6313343;22;20005;-87
2022/10/30 05:10:56;;;;;;;327.67;112.88;;;9.40;99.90;;;;;;6313598;22;20307;-86
2022/10/30 05:13:22;;;;;;;315.88;105.78;;;9.40;99.90;;;;;;6339229;22;20436;-86
2022/10/30 05:15:48;;;;;;;316.25;106.38;;;9.30;99.90;;;;;;6338781;22;20015;-84
2022/10/30 05:18:14;;;;;;;274.27;100.25;;;9.20;99.90;;;;;;6339454;22;20081;-84
2022/10/30 05:20:39;;;;;;;205.98;90.35;;;9.20;99.90;;;;;;6339475;22;20074;-87
2022/10/30 05:23:05;;;;;;;177.32;88.03;;;9.20;99.90;;;;;;6338814;22;20037;-86
2022/10/30 05:25:31;;;;;;;140.00;82.35;;;9.20;99.90;;;;;;6340249;22;20006;-86
2022/10/30 05:28:02;;;;;;;151.95;88.82;;;9.30;99.90;;;;;;6340937;22;19991;-85
2022/10/30 05:30:30;;;;;;;184.30;92.32;;;9.40;99.90;;;;;;6313295;22;20303;-85
2022/10/30 05:33:00;;;;;;;186.45;89.15;;;9.40;99.90;;;;;;6313142;22;19999;-85
2022/10/30 05:35:26;;;;;;;154.93;89.07;;;9.40;99.90;;;;;;6312936;22;19995;-87
2022/10/30 05:37:52;;;;;;;163.55;87.32;;;9.40;99.90;;;;;;6340473;22;19998;-86
2022/10/30 05:40:18;;;;;;;170.32;91.05;;;9.40;99.90;;;;;;6339243;22;19995;-85
2022/10/30 05:42:48;;;;;;;147.30;88.45;;;9.50;99.90;;;;;;6338795;22;20002;-88
2022/10/30 05:45:14;;;;;;;143.25;91.38;;;9.40;99.90;;;;;;6313153;22;19999;-88
2022/10/30 05:47:40;;;;;;;153.30;95.40;;;9.40;99.90;;;;;;6313076;22;20022;-85
2022/10/30 05:50:07;;;;;;;174.93;99.53;;;9.40;99.90;;;;;;6312908;22;20086;-86
2022/10/30 05:52:33;;;;;;;171.05;94.63;;;9.40;99.90;;;;;;6313143;22;20081;-86
2022/10/30 05:54:59;;;;;;;158.70;85.90;;;9.40;99.90;;;;;;6338868;22;20030;-84
2022/10/30 05:57:28;;;;;;;147.82;81.85;;;9.40;99.90;;;;;;6340120;22;20299;-85
2022/10/30 05:59:54;;;;;;;165.13;86.32;;;9.50;99.90;;;;;;6312919;22;19995;-86
2022/10/30 06:02:20;;;;;;;154.60;84.25;;;9.50;99.90;;;;;;6312905;22;20006;-87
2022/10/30 06:04:46;;;;;;;163.73;87.20;;;9.50;99.90;;;;;;6312411;22;20031;-88
2022/10/30 06:07:12;;;;;;;420.80;117.88;;;9.50;99.90;;;;;;6338934;22;20003;-86
2022/10/30 06:09:37;;;;;;;531.95;153.70;;;9.40;99.90;;;;;;6338905;22;20281;-88
2022/10/30 06:12:03;;;;;;;283.17;125.25;;;9.50;99.90;;;;;;6338313;22;20056;-86
2022/10/30 06:14:29;;;;;;;637.78;240.43;;;9.50;99.90;;;;;;6340203;22;20386;-85
2022/10/30 06:16:55;;;;;;;846.03;304.20;;;9.50;99.90;;;;;;6338921;22;20021;-85
2022/10/30 06:19:21;;;;;;;729.90;318.67;;;9.50;99.90;;;;;;6339632;22;20043;-86
2022/10/30 06:21:47;;;;;;;450.13;203.77;;;9.60;99.90;;;;;;6338725;22;19998;-85
2022/10/30 06:24:13;;;;;;;452.50;178.98;;;9.60;99.90;;;;;;6340285;22;19995;-86
2022/10/30 06:26:39;;;;;;;386.85;164.48;;;9.60;99.90;;;;;;6338783;22;20010;-85
2022/10/30 06:29:05;;;;;;;244.23;117.43;;;9.60;99.90;;;;;;6312703;22;19998;-86
2022/10/30 06:31:31;;;;;;;186.05;101.10;;;9.70;99.90;;;;;;6338692;22;20052;-86
2022/10/30 06:33:57;;;;;;;173.07;90.65;;;9.80;99.90;;;;;;6338738;22;19995;-87
2022/10/30 06:36:23;;;;;;;208.65;103.75;;;9.80;99.90;;;;;;6338647;22;20281;-86
2022/10/30 06:38:48;;;;;;;182.15;101.70;;;9.80;99.90;;;;;;6338622;22;19991;-87
2022/10/30 06:41:14;;;;;;;205.60;105.78;;;9.90;99.90;;;;;;6338433;22;20068;-85
2022/10/30 06:43:40;;;;;;;250.20;120.43;;;10.00;99.90;;;;;;6338422;22;19999;-87
2022/10/30 06:46:06;;;;;;;345.08;144.45;;;10.00;99.90;;;;;;6340036;22;19998;-86
2022/10/30 06:48:32;;;;;;;485.10;153.50;;;10.00;99.90;;;;;;6338096;22;20427;-86
2022/10/30 06:50:59;;;;;;;388.33;150.30;;;10.00;99.90;;;;;;6338491;22;19998;-85
2022/10/30 06:53:25;;;;;;;388.50;155.30;;;10.00;99.90;;;;;;6312401;22;20408;-85
2022/10/30 06:56:01;;;;;;;454.60;156.63;;;10.00;99.90;;;;;;6312631;22;20007;-86
2022/10/30 06:58:28;;;;;;;406.65;152.73;;;10.00;99.90;;;;;;6340187;22;19991;-85
2022/10/30 07:00:54;;;;;;;416.52;158.55;;;10.00;99.90;;;;;;6312226;22;20368;-86
2022/10/30 07:03:20;;;;;;;319.98;131.05;;;10.00;99.90;;;;;;6339975;22;19994;-86
2022/10/30 07:05:47;;;;;;;286.67;119.40;;;10.00;99.90;;;;;;6339865;22;19995;-86
2022/10/30 07:08:13;;;;;;;243.57;101.35;;;10.00;99.90;;;;;;6338170;22;20078;-86
2022/10/30 07:10:39;;;;;;;408.08;89.45;;;10.10;99.90;;;;;;6339938;22;19999;-86
2022/10/30 07:13:04;;;;;;;202.57;86.20;;;10.10;99.90;;;;;;6338546;22;20179;-84
2022/10/30 07:15:30;;;;;;;203.35;87.15;;;10.10;99.90;;;;;;6338844;22;20014;-84
2022/10/30 07:17:58;;;;;;;188.27;86.55;;;10.20;99.90;;;;;;6337751;22;20116;-84
2022/10/30 07:20:26;;;;;;;223.80;84.05;;;10.20;99.90;;;;;;6311773;22;20410;-84
2022/10/30 07:22:52;;;;;;;296.73;94.72;;;10.30;99.90;;;;;;6310779;22;20002;-84
2022/10/30 07:25:18;;;;;;;244.45;95.30;;;10.30;99.90;;;;;;6339221;22;19994;-85
2022/10/30 07:27:45;;;;;;;357.33;100.22;;;10.50;99.90;;;;;;6338013;22;19995;-84
2022/10/30 07:30:13;;;;;;;201.07;87.97;;;10.50;99.90;;;;;;6310495;22;20081;-84
2022/10/30 07:32:40;;;;;;;164.05;85.22;;;10.70;99.90;;;;;;6310731;22;20038;-81
2022/10/30 07:35:07;;;;;;;176.68;88.85;;;10.80;99.90;;;;;;6338758;22;19998;-83
2022/10/30 07:37:33;;;;;;;171.25;91.10;;;11.00;99.90;;;;;;6339224;22;20411;-81
2022/10/30 07:39:59;;;;;;;157.00;88.18;;;11.20;99.90;;;;;;6337380;22;20002;-82
2022/10/30 07:42:25;;;;;;;150.30;82.07;;;11.30;99.90;;;;;;6339651;22;19995;-82
2022/10/30 07:44:50;;;;;;;139.73;82.05;;;11.30;99.90;;;;;;6338110;22;20037;-83
2022/10/30 07:47:16;;;;;;;132.82;76.90;;;11.30;99.90;;;;;;6339655;22;20002;-83
2022/10/30 07:49:42;;;;;;;152.30;88.70;;;11.40;99.90;;;;;;6339739;22;19994;-84
2022/10/30 07:52:08;;;;;;;142.68;84.20;;;11.40;99.90;;;;;;6311711;22;20018;-82
2022/10/30 07:54:33;;;;;;;133.13;78.70;;;11.40;99.90;;;;;;6339380;22;20101;-84
2022/10/30 07:56:59;;;;;;;136.50;81.07;;;11.40;99.90;;;;;;6337751;22;20002;-85
2022/10/30 07:59:25;;;;;;;106.43;68.38;;;11.40;99.90;;;;;;6340009;22;20292;-83
2022/10/30 08:01:51;;;;;;;115.13;73.38;;;11.40;99.90;;;;;;6337734;22;20350;-83
2022/10/30 08:04:17;;;;;;;126.70;83.30;;;11.50;99.90;;;;;;6337722;22;20311;-85
2022/10/30 08:06:43;;;;;;;128.48;81.85;;;11.40;99.90;;;;;;6335898;22;20065;-83
2022/10/30 08:09:09;;;;;;;136.48;87.38;;;11.50;99.90;;;;;;6338312;22;19998;-82
2022/10/30 08:11:35;;;;;;;134.63;81.03;;;11.60;99.90;;;;;;6337251;22;19990;-82
2022/10/30 08:14:01;;;;;;;263.35;139.32;;;11.60;99.90;;;;;;6338278;22;19991;-84
2022/10/30 08:16:26;;;;;;;119.85;72.13;;;11.80;99.90;;;;;;6331200;22;20098;-83
2022/10/30 08:18:53;;;;;;;112.90;67.53;;;11.90;99.90;;;;;;6307036;22;19996;-86
2022/10/30 08:21:20;;;;;;;178.45;102.25;;;11.90;99.90;;;;;;6306540;22;20023;-82
2022/10/30 08:23:46;;;;;;;123.15;74.30;;;11.90;99.90;;;;;;6305707;22;19995;-82
2022/10/30 08:26:12;;;;;;;107.75;69.28;;;11.90;99.90;;;;;;6307009;22;20022;-82
2022/10/30 08:28:38;;;;;;;106.25;67.80;;;11.90;99.90;;;;;;6307300;22;20002;-83
2022/10/30 08:31:04;;;;;;;106.50;67.53;;;11.90;99.90;;;;;;6307019;22;19991;-85
2022/10/30 08:33:30;;;;;;;106.00;67.03;;;11.90;99.90;;;;;;6307974;22;20075;-83
2022/10/30 08:35:58;;;;;;;107.40;68.03;;;11.80;99.90;;;;;;6307803;22;20066;-83
2022/10/30 08:38:24;;;;;;;108.30;68.78;;;11.90;99.90;;;;;;6332535;22;19997;-86
2022/10/30 08:40:51;;;;;;;130.25;75.40;;;12.00;99.90;;;;;;6306358;22;19995;-83
2022/10/30 08:43:17;;;;;;;106.72;70.10;;;12.20;99.90;;;;;;6306657;22;19999;-82
2022/10/30 08:45:43;;;;;;;110.60;70.47;;;12.30;99.90;;;;;;6307993;22;19991;-84
2022/10/30 08:48:14;;;;;;;119.03;74.25;;;12.40;99.90;;;;;;6307866;22;20003;-84
2022/10/30 08:50:40;;;;;;;103.23;67.40;;;12.40;99.90;;;;;;6306915;22;20066;-86
2022/10/30 08:53:09;;;;;;;98.22;62.95;;;12.50;99.90;;;;;;6305608;22;20022;-82
2022/10/30 08:55:35;;;;;;;112.32;71.50;;;12.70;99.90;;;;;;6305259;22;19995;-85
2022/10/30 08:58:01;;;;;;;91.53;61.22;;;12.80;99.90;;;;;;6307950;22;20041;-85
2022/10/30 09:00:27;;;;;;;81.90;54.60;;;13.10;99.90;;;;;;6307322;22;20511;-87
2022/10/30 09:02:53;;;;;;;97.80;60.33;;;13.30;99.90;;;;;;6306531;22;20412;-84
2022/10/30 09:05:19;;;;;;;82.40;54.83;;;13.50;99.90;;;;;;6307550;22;19995;-86
2022/10/30 09:07:46;;;;;;;84.32;54.95;;;13.60;99.90;;;;;;6306640;22;20005;-83
2022/10/30 09:10:12;;;;;;;81.75;54.17;;;13.70;99.90;;;;;;6305622;22;20003;-87
2022/10/30 09:12:38;;;;;;;74.90;52.03;;;14.00;99.90;;;;;;6305974;22;19992;-85
2022/10/30 09:15:05;;;;;;;81.82;54.92;;;14.00;99.90;;;;;;6318872;22;20006;-87
2022/10/30 09:17:31;;;;;;;72.75;50.75;;;14.10;99.90;;;;;;6337935;22;20081;-88
2022/10/30 09:19:57;;;;;;;89.90;60.83;;;14.20;99.90;;;;;;6339299;22;20431;-89
2022/10/30 09:22:22;;;;;;;80.00;54.03;;;14.20;99.90;;;;;;6338059;22;20051;-86
2022/10/30 09:24:48;;;;;;;83.65;57.85;;;14.20;99.90;;;;;;6337969;22;20299;-86
2022/10/30 09:27:14;;;;;;;74.07;52.13;;;14.40;99.90;;;;;;6337612;22;20005;-85
2022/10/30 09:29:40;;;;;;;69.40;49.13;;;14.60;99.90;;;;;;6337974;22;20029;-84
2022/10/30 09:32:08;;;;;;;177.50;91.97;;;14.90;99.90;;;;;;6337807;22;20002;-85
2022/10/30 09:34:35;;;;;;;72.63;49.28;;;15.20;99.90;;;;;;6338935;22;20019;-85
2022/10/30 09:37:01;;;;;;;64.50;45.97;;;15.40;99.90;;;;;;6339178;22;20037;-86
2022/10/30 09:39:29;;;;;;;60.55;42.92;;;15.70;99.90;;;;;;6339371;22;20300;-86
2022/10/30 09:42:39;;;;;;;66.05;43.22;;;15.90;99.90;;;;;;6338975;22;19986;-84
2022/10/30 09:45:47;;;;;;;60.67;43.72;;;16.10;99.90;;;;;;6305108;22;20430;-85
2022/10/30 09:48:45;;;;;;;109.05;70.15;;;16.30;99.90;;;;;;6310182;22;20003;-84
2022/10/30 09:51:45;;;;;;;70.65;48.00;;;16.70;99.90;;;;;;6257763;22;20354;-83
2022/10/30 09:54:22;;;;;;;140.52;90.68;;;17.00;99.90;;;;;;6311810;22;20762;-85
2022/10/30 09:57:21;;;;;;;150.90;93.07;;;17.30;99.90;;;;;;6340091;22;20438;-85
2022/10/30 09:59:53;;;;;;;67.05;48.25;;;17.50;99.90;;;;;;6290853;22;19994;-85
2022/10/30 10:02:21;;;;;;;;;;;17.70;99.90;;;;;;6312520;22;20002;-85
2022/10/30 10:04:51;;;;;;;71.38;47.13;;;17.90;99.90;;;;;;6312459;22;19899;-83
2022/10/30 10:07:27;;;;;;;49.75;37.83;;;18.20;99.90;;;;;;6339361;22;19995;-83
2022/10/30 10:10:00;;;;;;;55.05;37.42;;;18.20;99.90;;;;;;6339163;22;20059;-83
2022/10/30 10:12:38;;;;;;;60.70;41.20;;;18.40;99.90;;;;;;6339980;22;19994;-82
2022/10/30 10:15:18;;;;;;;56.85;39.60;;;18.80;99.90;;;;;;6306611;22;20039;-84
2022/10/30 10:17:45;;;;;;;71.53;40.88;;;;;;;;;;6281565;22;20002;-83
2022/10/30 10:20:25;;;;;;;60.97;43.00;;;19.00;99.90;;;;;;6281015;22;19999;-84
2022/10/30 10:22:51;;;;;;;61.30;44.15;;;19.20;99.90;;;;;;6308340;22;20044;-84
2022/10/30 10:25:19;;;;;;;58.65;42.20;;;19.70;99.90;;;;;;6307095;22;20078;-83
2022/10/30 10:27:53;;;;;;;55.15;38.97;;;;;;;;;;6281279;22;19996;-84
2022/10/30 10:30:23;;;;;;;58.25;40.25;;;20.10;99.90;;;;;;6308639;22;20090;-85
2022/10/30 10:33:08;;;;;;;47.75;33.72;;;20.30;99.90;;;;;;6281222;22;20404;-83
2022/10/30 10:35:53;;;;;;;47.53;34.33;;;20.40;99.90;;;;;;6281162;22;20315;-86
2022/10/30 10:38:27;;;;;;;47.28;33.47;;;20.40;99.90;;;;;;6308200;22;20349;-84
2022/10/30 10:41:07;;;;;;;46.08;34.50;;;20.40;99.90;;;;;;6308262;22;20002;-83
2022/10/30 10:43:52;;;;;;;51.88;34.85;;;;;;;;;;6281070;22;20285;-86
2022/10/30 10:46:29;;;;;;;46.50;33.05;;;20.50;99.90;;;;;;6307323;22;19999;-82
2022/10/30 10:49:12;;;;;;;54.17;35.72;;;20.70;99.90;;;;;;6307362;22;20053;-86
2022/10/30 10:51:46;;;;;;;43.40;34.05;;;20.70;99.90;;;;;;6307956;22;19992;-82
2022/10/30 10:54:35;;;;;;;48.22;34.95;;;20.70;99.90;;;;;;6308366;22;19991;-85
2022/10/30 10:57:04;;;;;;;48.55;35.75;;;20.80;99.90;;;;;;6308258;22;20007;-85
2022/10/30 10:59:35;;;;;;;51.33;35.38;;;20.80;99.90;;;;;;6308495;22;20002;-86
2022/10/30 11:02:25;;;;;;;56.53;37.95;;;21.10;99.90;;;;;;6308093;22;20423;-83
2022/10/30 11:04:53;;;;;;;49.53;36.72;;;;;;;;;;6280128;22;19999;-85
2022/10/30 11:07:24;;;;;;;51.72;37.78;;;;;;;;;;6308358;22;20103;-83
2022/10/30 11:09:51;;;;;;;47.75;37.00;;;;;;;;;;6308274;22;19999;-85
2022/10/30 11:12:21;;;;;;;49.92;37.15;;;;;;;;;;6280629;22;20003;-83
2022/10/30 11:14:47;;;;;;;56.42;37.85;;;;;;;;;;6287343;22;20074;-86
2022/10/30 11:17:42;;;;;;;49.50;37.35;;;;;;;;;;6339074;22;20468;-82
2022/10/30 11:20:15;;;;;;;50.10;34.67;;;;;;;;;;6187450;23;20046;-83
2022/10/30 11:22:43;;;;;;;58.40;40.38;;;;;;;;;;6213119;23;20508;-82
2022/10/30 11:25:32;;;;;;;47.03;34.53;;;;;;;;;;6213168;23;20029;-82
2022/10/30 11:28:03;;;;;;;50.53;35.47;;;;;;;;;;6187789;23;20091;-85
2022/10/30 11:30:29;;;;;;;47.65;36.30;;;;;;;;;;6213022;23;19993;-82
2022/10/30 11:32:56;;;;;;;48.10;35.70;;;;;;;;;;6212511;23;20003;-81
2022/10/30 11:35:22;;;;;;;58.97;42.25;;;;;;;;;;6213285;23;20000;-82
2022/10/30 11:37:49;;;;;;;45.05;32.45;;;;;;;;;;6213072;23;20328;-84
2022/10/30 11:40:17;;;;;;;41.83;31.58;;;;;;;;;;6212632;23;19996;-84
2022/10/30 11:42:55;;;;;;;43.33;31.42;;;;;;;;;;6213116;23;20058;-83
2022/10/30 11:45:26;;;;;;;51.95;34.58;;;;;;;;;;6213101;23;20007;-83
2022/10/30 11:47:53;;;;;;;129.07;83.07;;;;;;;;;;6212859;23;20009;-85
2022/10/30 11:50:23;;;;;;;55.65;38.70;;;;;;;;;;6213082;23;20410;-86
2022/10/30 11:52:53;;;;;;;43.28;33.30;;;;;;;;;;6212883;23;19993;-85
2022/10/30 11:55:24;;;;;;;48.38;33.33;;;;;;;;;;6213834;22;20084;-83
2022/10/30 11:57:59;;;;;;;46.10;33.80;;;;;;;;;;6338891;22;20013;-84
2022/10/30 12:00:27;;;;;;;47.03;34.70;;;;;;;;;;6311217;22;19990;-83
2022/10/30 12:02:55;;;;;;;48.38;35.03;;;;;;;;;;6311215;22;20005;-84
2022/10/30 12:05:27;;;;;;;47.67;35.75;;;;;;;;;;6338954;22;20404;-81
2022/10/30 12:07:54;;;;;;;47.28;34.55;;;;;;;;;;6310868;22;20006;-84
2022/10/30 12:10:28;;;;;;;49.67;33.00;;;;;;;;;;6339086;22;20070;-82
2022/10/30 12:12:54;;;;;;;52.53;32.72;;;;;;;;;;6338793;22;19994;-84
2022/10/30 12:15:22;;;;;;;56.03;35.88;;;;;;;;;;6310763;22;20093;-82
2022/10/30 12:17:58;;;;;;;54.38;38.08;;;;;;;;;;6311422;22;20077;-84
2022/10/30 12:20:24;;;;;;;47.75;34.97;;;;;;;;;;6311227;22;20123;-83
2022/10/30 12:22:50;;;;;;;49.92;36.33;;;;;;;;;;6338828;22;20036;-83
2022/10/30 12:25:26;;;;;;;52.72;37.65;;;;;;;;;;6311015;22;19995;-84
2022/10/30 12:28:12;;;;;;;50.95;37.13;;;;;;;;;;6310715;22;20034;-85
2022/10/30 12:30:43;;;;;;;52.85;37.67;;;;;;;;;;6311055;22;20033;-83
2022/10/30 12:33:22;;;;;;;48.08;35.20;;;;;;;;;;6310920;22;20055;-84
2022/10/30 12:35:56;;;;;;;49.92;35.08;;;;;;;;;;6338947;22;20074;-83
2022/10/30 12:38:28;;;;;;;49.90;35.13;;;;;;;;;;6311292;22;20060;-84
2022/10/30 12:41:16;;;;;;;51.63;35.58;;;;;;;;;;6310579;22;20434;-83
2022/10/30 12:43:45;;;;;;;55.20;37.47;;;;;;;;;;6310447;22;19995;-83